createdAt,value
2022-11-16T00:02:21.028Z,26.70
2022-11-16T00:04:49.072Z,26.98
2022-11-16T00:07:17.272Z,25.55
2022-11-16T00:09:45.373Z,24.50
2022-11-16T00:12:13.859Z,25.38
2022-11-16T00:14:41.747Z,24.10
2022-11-16T00:17:09.690Z,26.40
2022-11-16T00:19:39.140Z,24.70
2022-11-16T00:22:07.095Z,23.00
2022-11-16T00:24:35.077Z,24.33
2022-11-16T00:27:03.030Z,26.02
2022-11-16T00:29:31.446Z,23.55
2022-11-16T00:31:59.608Z,24.58
2022-11-16T00:34:28.666Z,23.50
2022-11-16T00:36:58.115Z,23.98
2022-11-16T00:39:26.348Z,23.92
2022-11-16T00:41:54.283Z,22.98
2022-11-16T00:44:22.598Z,23.60
2022-11-16T00:46:50.600Z,20.98
2022-11-16T00:49:18.527Z,22.23
2022-11-16T00:51:46.535Z,23.00
2022-11-16T00:54:15.862Z,21.63
2022-11-16T00:56:43.954Z,22.45
2022-11-16T00:59:13.245Z,22.40
2022-11-16T01:01:43.414Z,21.33
2022-11-16T01:04:11.532Z,21.77
2022-11-16T01:06:39.451Z,23.02
2022-11-16T01:09:07.435Z,23.00
2022-11-16T01:11:53.951Z,22.63
2022-11-16T01:14:21.921Z,21.70
2022-11-16T01:16:50.731Z,20.52
2022-11-16T01:19:18.931Z,21.40
2022-11-16T01:21:46.973Z,21.45
2022-11-16T01:24:15.179Z,21.88
2022-11-16T01:26:44.574Z,22.48
2022-11-16T01:29:12.868Z,22.33
2022-11-16T01:31:45.332Z,21.33
2022-11-16T01:34:13.482Z,23.08
2022-11-16T01:36:41.384Z,21.13
2022-11-16T01:39:09.500Z,23.05
2022-11-16T01:41:48.225Z,22.55
2022-11-16T01:44:58.614Z,22.40
2022-11-16T01:47:26.977Z,21.15
2022-11-16T01:50:00.688Z,21.20
2022-11-16T01:52:34.972Z,21.48
2022-11-16T01:55:04.873Z,21.65
2022-11-16T01:57:49.084Z,22.17
2022-11-16T02:00:19.592Z,22.15
2022-11-16T02:03:01.188Z,23.05
2022-11-16T02:06:13.151Z,21.63
2022-11-16T02:09:13.788Z,23.20
2022-11-16T02:12:17.944Z,22.05
2022-11-16T02:15:05.352Z,20.73
2022-11-16T02:17:42.825Z,21.90
2022-11-16T02:20:55.850Z,20.77
2022-11-16T02:23:51.704Z,19.48
2022-11-16T02:26:36.092Z,19.50
2022-11-16T02:29:19.968Z,20.77
2022-11-16T02:34:22.329Z,22.10
2022-11-16T02:36:54.382Z,22.45
2022-11-16T02:39:27.240Z,22.23
2022-11-16T02:41:57.713Z,20.60
2022-11-16T02:44:34.056Z,22.90
2022-11-16T02:47:05.914Z,21.20
2022-11-16T02:49:37.904Z,21.88
2022-11-16T02:52:06.208Z,21.70
2022-11-16T02:54:34.120Z,24.50
2022-11-16T02:57:28.295Z,21.70
2022-11-16T03:00:00.100Z,18.92
2022-11-16T03:02:37.511Z,21.52
2022-11-16T03:05:10.596Z,21.75
2022-11-16T03:07:49.004Z,21.70
2022-11-16T03:10:34.289Z,22.10
2022-11-16T03:13:08.395Z,22.05
2022-11-16T03:15:42.361Z,23.38
2022-11-16T03:18:16.710Z,21.35
2022-11-16T03:20:45.555Z,22.25
2022-11-16T03:23:14.975Z,22.35
2022-11-16T03:25:50.353Z,22.45
2022-11-16T03:28:25.515Z,22.65
2022-11-16T03:31:02.909Z,22.25
2022-11-16T03:33:36.739Z,23.65
2022-11-16T03:36:10.161Z,23.85
2022-11-16T03:38:41.800Z,22.10
2022-11-16T03:41:12.099Z,22.92
2022-11-16T03:43:41.466Z,23.15
2022-11-16T03:46:11.460Z,23.08
2022-11-16T03:48:41.897Z,23.10
2022-11-16T03:51:16.070Z,24.55
2022-11-16T03:53:44.119Z,24.33
2022-11-16T03:56:14.585Z,24.48
2022-11-16T03:58:42.544Z,24.25
2022-11-16T04:01:12.056Z,24.98
2022-11-16T04:03:41.276Z,25.25
2022-11-16T04:06:29.180Z,27.15
2022-11-16T04:09:14.617Z,26.60
2022-11-16T04:12:00.906Z,29.67
2022-11-16T04:14:47.171Z,28.42
2022-11-16T04:17:38.324Z,28.92
2022-11-16T04:20:24.656Z,27.15
2022-11-16T04:23:17.278Z,27.80
2022-11-16T04:25:47.816Z,28.83
2022-11-16T04:28:19.704Z,31.20
2022-11-16T04:31:23.385Z,32.65
2022-11-16T04:34:22.306Z,31.38
2022-11-16T04:37:10.839Z,27.80
2022-11-16T04:39:40.417Z,29.30
2022-11-16T04:42:14.972Z,28.17
2022-11-16T04:45:01.912Z,27.23
2022-11-16T04:47:36.613Z,29.60
2022-11-16T04:50:07.023Z,33.17
2022-11-16T04:52:35.240Z,29.13
2022-11-16T04:55:04.725Z,29.52
2022-11-16T04:57:33.677Z,28.52
2022-11-16T05:00:01.703Z,29.67
2022-11-16T05:02:30.741Z,29.85
2022-11-16T05:04:59.920Z,31.27
2022-11-16T05:07:30.969Z,29.60
2022-11-16T05:10:07.019Z,31.17
2022-11-16T05:12:36.278Z,31.90
2022-11-16T05:15:08.138Z,31.25
2022-11-16T05:17:36.479Z,29.85
2022-11-16T05:20:29.895Z,30.55
2022-11-16T05:23:05.063Z,33.90
2022-11-16T05:25:37.137Z,31.70
2022-11-16T05:28:08.458Z,30.83
2022-11-16T05:30:40.757Z,32.25
2022-11-16T05:33:09.097Z,30.95
2022-11-16T05:35:41.103Z,30.50
2022-11-16T05:38:10.736Z,31.38
2022-11-16T05:40:45.548Z,29.77
2022-11-16T05:43:13.813Z,37.15
2022-11-16T05:45:50.214Z,31.15
2022-11-16T05:48:18.182Z,34.13
2022-11-16T05:50:46.240Z,31.55
2022-11-16T05:53:24.917Z,30.77
2022-11-16T05:55:53.537Z,32.53
2022-11-16T05:58:22.468Z,33.15
2022-11-16T06:00:52.152Z,31.75
2022-11-16T06:03:21.164Z,34.60
2022-11-16T06:05:53.213Z,32.60
2022-11-16T06:08:21.440Z,33.97
2022-11-16T06:10:54.472Z,32.13
2022-11-16T06:13:22.769Z,32.60
2022-11-16T06:15:55.501Z,30.00
2022-11-16T06:18:24.071Z,31.13
2022-11-16T06:20:52.290Z,33.47
2022-11-16T06:23:21.881Z,32.40
2022-11-16T06:25:55.984Z,30.75
2022-11-16T06:28:26.448Z,30.45
2022-11-16T06:30:55.666Z,31.58
2022-11-16T06:33:29.649Z,31.45
2022-11-16T06:36:02.066Z,32.08
2022-11-16T06:38:30.171Z,31.98
2022-11-16T06:41:01.431Z,31.52
2022-11-16T06:43:31.266Z,32.33
2022-11-16T06:46:01.288Z,33.47
2022-11-16T06:48:29.412Z,31.83
2022-11-16T06:50:57.563Z,32.10
2022-11-16T06:53:29.253Z,32.22
2022-11-16T06:56:04.155Z,31.65
2022-11-16T06:58:35.713Z,30.40
2022-11-16T07:01:08.229Z,30.88
2022-11-16T07:03:38.843Z,29.83
2022-11-16T07:06:09.839Z,29.83
2022-11-16T07:08:39.617Z,32.42
2022-11-16T07:11:10.478Z,33.28
2022-11-16T07:13:39.664Z,32.05
2022-11-16T07:16:12.405Z,30.75
2022-11-16T07:18:46.111Z,30.83
2022-11-16T07:21:16.867Z,30.30
2022-11-16T07:23:46.079Z,29.73
2022-11-16T07:26:20.514Z,30.88
2022-11-16T07:28:54.073Z,31.92
2022-11-16T07:31:23.739Z,30.77
2022-11-16T07:34:11.624Z,32.22
2022-11-16T07:36:45.829Z,32.25
2022-11-16T07:39:14.302Z,33.67
2022-11-16T07:41:45.202Z,31.85
2022-11-16T07:44:26.289Z,32.83
2022-11-16T07:47:07.632Z,32.35
2022-11-16T07:49:37.238Z,31.73
2022-11-16T07:52:11.323Z,35.80
2022-11-16T07:54:51.519Z,33.80
2022-11-16T07:57:21.822Z,29.52
2022-11-16T07:59:50.699Z,31.45
2022-11-16T08:02:19.038Z,32.50
2022-11-16T08:04:47.169Z,33.70
2022-11-16T08:07:16.582Z,33.13
2022-11-16T08:09:52.046Z,31.92
2022-11-16T08:12:22.989Z,32.28
2022-11-16T08:14:50.986Z,32.42
2022-11-16T08:17:18.940Z,31.60
2022-11-16T08:19:46.911Z,33.15
2022-11-16T08:22:17.116Z,36.33
2022-11-16T08:24:46.499Z,33.40
2022-11-16T08:27:16.994Z,33.47
2022-11-16T08:29:49.100Z,32.70
2022-11-16T08:32:17.183Z,29.42
2022-11-16T08:34:45.598Z,32.45
2022-11-16T08:37:14.289Z,30.33
2022-11-16T08:39:46.243Z,28.42
2022-11-16T08:42:14.518Z,28.92
2022-11-16T08:44:46.970Z,30.83
2022-11-16T08:47:18.123Z,36.50
2022-11-16T08:49:50.140Z,28.52
2022-11-16T08:52:20.297Z,27.33
2022-11-16T08:54:50.549Z,29.05
2022-11-16T08:57:19.024Z,27.42
2022-11-16T08:59:50.127Z,25.95
2022-11-16T09:02:25.349Z,25.38
2022-11-16T09:04:53.735Z,26.85
2022-11-16T09:07:22.429Z,25.15
2022-11-16T09:09:50.339Z,26.88
2022-11-16T09:12:18.292Z,26.92
2022-11-16T09:14:46.253Z,22.90
2022-11-16T09:17:18.810Z,25.70
2022-11-16T09:19:51.293Z,23.45
2022-11-16T09:22:19.375Z,24.10
2022-11-16T09:24:47.403Z,24.00
2022-11-16T09:27:16.510Z,27.67
2022-11-16T09:29:44.406Z,22.63
2022-11-16T09:32:12.328Z,22.00
2022-11-16T09:34:40.257Z,24.10
2022-11-16T09:37:09.873Z,21.10
2022-11-16T09:39:37.782Z,24.73
2022-11-16T09:42:26.707Z,19.10
2022-11-16T09:45:04.274Z,16.98
2022-11-16T09:47:50.189Z,16.88
2022-11-16T09:50:37.179Z,15.43
2022-11-16T09:53:23.658Z,14.30
2022-11-16T09:55:54.348Z,12.25
2022-11-16T09:58:28.031Z,13.65
2022-11-16T10:01:01.147Z,12.60
2022-11-16T10:03:33.379Z,13.80
2022-11-16T10:06:04.431Z,12.07
2022-11-16T10:08:44.271Z,13.00
2022-11-16T10:11:38.142Z,12.68
2022-11-16T10:16:50.868Z,13.52
2022-11-16T10:19:29.002Z,14.68
2022-11-16T10:22:04.978Z,13.65
2022-11-16T10:24:50.968Z,13.98
2022-11-16T10:27:45.191Z,13.27
2022-11-16T10:30:15.939Z,13.70
2022-11-16T10:32:51.150Z,14.98
2022-11-16T10:35:25.328Z,14.95
2022-11-16T10:37:53.506Z,12.38
2022-11-16T10:40:25.004Z,13.20
2022-11-16T10:43:01.316Z,15.90
2022-11-16T10:45:36.509Z,15.02
2022-11-16T10:48:16.840Z,13.73
2022-11-16T10:50:48.094Z,14.88
2022-11-16T10:53:26.437Z,14.75
2022-11-16T10:56:12.099Z,15.43
2022-11-16T10:58:52.331Z,15.73
2022-11-16T11:01:38.401Z,16.00
2022-11-16T11:04:21.990Z,15.88
2022-11-16T11:09:28.950Z,16.33
2022-11-16T11:12:31.367Z,19.77
2022-11-16T11:15:06.826Z,17.02
2022-11-16T11:17:36.475Z,16.48
2022-11-16T11:20:06.652Z,16.55
2022-11-16T11:22:42.864Z,15.15
2022-11-16T11:25:22.888Z,16.08
2022-11-16T11:27:53.898Z,15.48
2022-11-16T11:30:23.302Z,16.63
2022-11-16T11:32:52.928Z,16.40
2022-11-16T11:35:25.967Z,21.30
2022-11-16T11:37:57.124Z,18.27
2022-11-16T11:40:26.416Z,16.58
2022-11-16T11:42:59.373Z,17.58
2022-11-16T11:45:35.577Z,18.63
2022-11-16T11:48:07.680Z,17.00
2022-11-16T11:50:46.389Z,17.80
2022-11-16T11:53:25.206Z,18.63
2022-11-16T11:55:58.150Z,17.10
2022-11-16T11:58:32.009Z,21.52
2022-11-16T12:01:25.874Z,18.25
2022-11-16T12:04:26.258Z,19.17
2022-11-16T12:07:02.509Z,18.05
2022-11-16T12:09:37.637Z,17.42
2022-11-16T12:12:23.124Z,18.23
2022-11-16T12:15:23.473Z,18.08
2022-11-16T12:17:59.650Z,17.60
2022-11-16T12:20:35.356Z,17.77
2022-11-16T12:23:28.556Z,18.05
2022-11-16T12:26:03.726Z,20.05
2022-11-16T12:28:52.626Z,19.38
2022-11-16T12:31:43.847Z,18.67
2022-11-16T12:34:21.286Z,17.65
2022-11-16T12:36:57.005Z,20.65
2022-11-16T12:39:27.511Z,17.80
2022-11-16T12:42:24.983Z,18.65
2022-11-16T12:45:06.353Z,17.20
2022-11-16T12:47:43.893Z,19.80
2022-11-16T12:50:36.596Z,16.90
2022-11-16T12:53:20.162Z,17.73
2022-11-16T12:58:28.269Z,16.48
2022-11-16T13:01:04.641Z,17.83
2022-11-16T13:03:40.301Z,16.48
2022-11-16T13:06:12.866Z,19.08
2022-11-16T13:08:53.503Z,17.83
2022-11-16T13:11:24.774Z,19.58
2022-11-16T13:13:57.944Z,18.75
2022-11-16T13:18:55.786Z,15.70
2022-11-16T13:21:34.060Z,17.17
2022-11-16T13:24:13.990Z,17.77
2022-11-16T13:26:49.302Z,15.85
2022-11-16T13:29:30.566Z,17.23
2022-11-16T13:32:05.774Z,17.55
2022-11-16T13:34:38.572Z,16.02
2022-11-16T13:37:48.565Z,16.38
2022-11-16T13:40:28.781Z,14.60
2022-11-16T13:43:08.337Z,15.43
2022-11-16T13:45:40.534Z,14.32
2022-11-16T13:48:18.451Z,14.90
2022-11-16T13:50:53.060Z,13.98
2022-11-16T13:56:21.816Z,14.48
2022-11-16T13:58:55.694Z,14.40
2022-11-16T14:01:23.878Z,14.15
2022-11-16T14:03:53.331Z,13.32
2022-11-16T14:06:58.163Z,13.75
2022-11-16T14:09:44.996Z,12.95
2022-11-16T14:12:52.911Z,12.18
2022-11-16T14:15:23.376Z,13.13
2022-11-16T14:17:59.623Z,13.07
2022-11-16T14:20:57.101Z,12.80
2022-11-16T14:23:37.112Z,12.63
2022-11-16T14:26:14.464Z,13.80
2022-11-16T14:28:55.317Z,14.13
2022-11-16T14:31:25.625Z,14.90
2022-11-16T14:33:56.291Z,14.10
2022-11-16T14:36:41.215Z,12.32
2022-11-16T14:39:18.665Z,12.93
2022-11-16T14:41:48.084Z,13.25
2022-11-16T14:44:19.623Z,13.50
2022-11-16T14:46:47.812Z,12.60
2022-11-16T14:49:20.389Z,13.32
2022-11-16T14:51:52.350Z,13.57
2022-11-16T14:54:29.582Z,13.35
2022-11-16T14:57:00.045Z,13.75
2022-11-16T14:59:28.897Z,13.02
2022-11-16T15:01:57.310Z,14.88
2022-11-16T15:04:27.155Z,13.63
2022-11-16T15:06:58.957Z,14.35
2022-11-16T15:09:31.736Z,14.15
2022-11-16T15:12:19.955Z,12.70
2022-11-16T15:14:51.413Z,13.88
2022-11-16T15:17:22.131Z,12.65
2022-11-16T15:19:57.085Z,11.82
2022-11-16T15:22:27.176Z,12.43
2022-11-16T15:24:58.115Z,12.43
2022-11-16T15:27:36.831Z,11.75
2022-11-16T15:30:14.568Z,11.68
2022-11-16T15:32:44.041Z,12.40
2022-11-16T15:35:19.920Z,12.13
2022-11-16T15:37:48.000Z,10.60
2022-11-16T15:40:17.689Z,10.95
2022-11-16T15:42:45.808Z,11.05
2022-11-16T15:45:23.003Z,10.55
2022-11-16T15:47:53.817Z,10.43
2022-11-16T15:50:24.280Z,11.50
2022-11-16T15:52:55.226Z,10.93
2022-11-16T15:55:32.697Z,10.98
2022-11-16T15:58:22.288Z,11.00
2022-11-16T16:00:50.631Z,11.95
2022-11-16T16:03:23.010Z,10.02
2022-11-16T16:05:51.385Z,10.30
2022-11-16T16:08:34.366Z,10.90
2022-11-16T16:11:06.628Z,10.38
2022-11-16T16:13:37.652Z,9.30
2022-11-16T16:16:27.350Z,9.50
2022-11-16T16:19:00.774Z,8.27
2022-11-16T16:21:42.539Z,9.15
2022-11-16T16:24:12.928Z,9.23
2022-11-16T16:26:42.257Z,9.40
2022-11-16T16:29:10.180Z,9.38
2022-11-16T16:31:38.145Z,9.50
2022-11-16T16:34:12.572Z,8.95
2022-11-16T16:36:40.536Z,9.70
2022-11-16T16:39:08.514Z,10.35
2022-11-16T16:41:36.511Z,10.95
2022-11-16T16:44:14.721Z,10.00
2022-11-16T16:46:42.857Z,10.38
2022-11-16T16:49:11.687Z,9.88
2022-11-16T16:51:39.651Z,9.88
2022-11-16T16:54:07.990Z,9.52
2022-11-16T16:56:35.958Z,10.93
2022-11-16T16:59:04.076Z,9.60
2022-11-16T17:01:33.549Z,9.55
2022-11-16T17:04:01.514Z,11.38
2022-11-16T17:06:30.650Z,10.00
2022-11-16T17:08:58.642Z,9.88
2022-11-16T17:11:26.909Z,11.50
2022-11-16T17:13:54.867Z,9.35
2022-11-16T17:16:22.885Z,8.60
2022-11-16T17:18:56.689Z,10.07
2022-11-16T17:21:24.658Z,10.50
2022-11-16T17:23:52.587Z,10.45
2022-11-16T17:26:20.968Z,9.25
2022-11-16T17:28:49.147Z,10.55
2022-11-16T17:31:17.484Z,11.02
2022-11-16T17:33:45.397Z,10.75
2022-11-16T17:36:15.103Z,10.88
2022-11-16T17:38:43.172Z,11.15
2022-11-16T17:41:13.723Z,10.95
2022-11-16T17:43:42.844Z,10.60
2022-11-16T17:46:12.665Z,10.57
2022-11-16T17:48:42.234Z,10.27
2022-11-16T17:51:10.597Z,9.43
2022-11-16T17:53:40.776Z,10.77
2022-11-16T17:56:09.132Z,9.20
2022-11-16T17:58:37.045Z,10.20
2022-11-16T18:01:05.208Z,9.57
2022-11-16T18:03:33.549Z,9.10
2022-11-16T18:06:04.464Z,9.18
2022-11-16T18:08:33.019Z,9.13
2022-11-16T18:11:06.717Z,8.55
2022-11-16T18:13:35.551Z,8.30
2022-11-16T18:16:05.688Z,8.52
2022-11-16T18:18:34.439Z,8.45
2022-11-16T18:21:02.909Z,8.45
2022-11-16T18:23:30.957Z,7.68
2022-11-16T18:25:58.921Z,7.88
2022-11-16T18:28:30.115Z,8.10
2022-11-16T18:31:04.017Z,8.13
2022-11-16T18:33:32.466Z,8.02
2022-11-16T18:36:00.789Z,9.63
2022-11-16T18:38:28.727Z,8.10
2022-11-16T18:41:16.628Z,7.45
2022-11-16T18:43:50.982Z,7.43
2022-11-16T18:46:19.157Z,7.88
2022-11-16T18:48:47.806Z,6.93
2022-11-16T18:51:16.731Z,6.65
2022-11-16T18:53:45.045Z,6.70
2022-11-16T18:56:13.030Z,7.07
2022-11-16T18:58:50.987Z,6.03
2022-11-16T19:01:24.595Z,6.90
2022-11-16T19:03:53.256Z,6.87
2022-11-16T19:06:22.261Z,6.93
2022-11-16T19:08:56.399Z,6.28
2022-11-16T19:11:25.549Z,6.50
2022-11-16T19:13:55.229Z,6.15
2022-11-16T19:16:25.869Z,7.20
2022-11-16T19:18:54.095Z,6.18
2022-11-16T19:21:23.054Z,6.68
2022-11-16T19:23:52.997Z,6.25
2022-11-16T19:26:23.578Z,6.00
2022-11-16T19:28:55.284Z,6.80
2022-11-16T19:31:26.533Z,6.82
2022-11-16T19:33:56.031Z,6.05
2022-11-16T19:36:25.727Z,5.82
2022-11-16T19:38:53.851Z,6.68
2022-11-16T19:41:22.938Z,6.70
2022-11-16T19:43:52.572Z,6.43
2022-11-16T19:46:21.549Z,6.15
2022-11-16T19:48:51.242Z,5.38
2022-11-16T19:51:21.442Z,5.82
2022-11-16T19:53:49.668Z,6.10
2022-11-16T19:56:19.903Z,5.90
2022-11-16T19:58:48.259Z,6.30
2022-11-16T20:01:18.275Z,5.78
2022-11-16T20:03:47.062Z,6.40
2022-11-16T20:06:18.988Z,6.40
2022-11-16T20:08:49.551Z,6.00
2022-11-16T20:11:20.448Z,6.70
2022-11-16T20:13:48.960Z,6.13
2022-11-16T20:16:18.239Z,6.22
2022-11-16T20:18:47.551Z,6.25
2022-11-16T20:21:20.667Z,6.07
2022-11-16T20:23:48.785Z,5.63
2022-11-16T20:26:16.931Z,5.50
2022-11-16T20:28:45.309Z,5.40
2022-11-16T20:31:15.249Z,5.90
2022-11-16T20:33:43.939Z,6.32
2022-11-16T20:36:12.907Z,5.82
2022-11-16T20:38:42.306Z,5.88
2022-11-16T20:41:11.791Z,6.07
2022-11-16T20:43:40.482Z,6.15
2022-11-16T20:46:09.579Z,6.13
2022-11-16T20:48:38.247Z,5.72
2022-11-16T20:51:07.340Z,5.57
2022-11-16T20:53:35.900Z,5.57
2022-11-16T20:56:07.626Z,6.30
2022-11-16T20:58:36.170Z,6.57
2022-11-16T21:01:05.169Z,6.60
2022-11-16T21:03:33.702Z,7.38
2022-11-16T21:06:01.951Z,6.55
2022-11-16T21:08:30.156Z,6.47
2022-11-16T21:10:58.380Z,6.78
2022-11-16T21:13:45.214Z,6.97
2022-11-16T21:16:15.381Z,6.80
2022-11-16T21:18:43.446Z,6.45
2022-11-16T21:21:13.320Z,6.70
2022-11-16T21:23:45.039Z,6.55
2022-11-16T21:26:15.756Z,6.20
2022-11-16T21:28:45.533Z,6.68
2022-11-16T21:31:15.379Z,6.78
2022-11-16T21:33:44.957Z,6.10
2022-11-16T21:36:14.782Z,6.80
2022-11-16T21:38:43.201Z,6.75
2022-11-16T21:41:12.034Z,6.88
2022-11-16T21:43:40.847Z,6.53
2022-11-16T21:46:12.984Z,7.88
2022-11-16T21:48:41.555Z,6.93
2022-11-16T21:51:10.836Z,6.63
2022-11-16T21:53:39.440Z,6.65
2022-11-16T21:56:08.836Z,6.40
2022-11-16T21:58:36.848Z,6.57
2022-11-16T22:01:04.871Z,6.43
2022-11-16T22:03:34.589Z,6.65
2022-11-16T22:06:22.427Z,6.40
2022-11-16T22:08:50.928Z,6.75
2022-11-16T22:11:22.107Z,7.40
2022-11-16T22:13:51.113Z,6.20
2022-11-16T22:16:20.952Z,6.72
2022-11-16T22:18:50.932Z,6.03
2022-11-16T22:21:18.937Z,6.43
2022-11-16T22:23:46.940Z,5.95
2022-11-16T22:26:15.316Z,6.60
2022-11-16T22:28:43.526Z,6.15
2022-11-16T22:31:13.467Z,6.20
2022-11-16T22:33:42.017Z,6.53
2022-11-16T22:36:11.966Z,5.82
2022-11-16T22:38:40.075Z,6.70
2022-11-16T22:41:08.169Z,10.23
2022-11-16T22:43:37.425Z,7.05
2022-11-16T22:46:06.917Z,6.32
2022-11-16T22:48:37.099Z,6.00
2022-11-16T22:51:07.382Z,6.07
2022-11-16T22:53:37.070Z,6.70
2022-11-16T22:56:07.478Z,6.70
2022-11-16T22:58:35.794Z,5.72
2022-11-16T23:01:04.296Z,6.72
2022-11-16T23:03:32.928Z,6.38
2022-11-16T23:06:01.050Z,6.82
2022-11-16T23:08:29.016Z,6.30
2022-11-16T23:11:21.000Z,7.15
2022-11-16T23:14:07.498Z,6.60
2022-11-16T23:16:35.799Z,6.63
2022-11-16T23:19:24.202Z,6.30
2022-11-16T23:22:09.723Z,6.45
2022-11-16T23:24:55.385Z,6.32
2022-11-16T23:27:31.406Z,8.85
2022-11-16T23:30:01.481Z,7.28
2022-11-16T23:32:30.703Z,6.68
2022-11-16T23:34:58.687Z,7.45
2022-11-16T23:37:26.842Z,6.63
2022-11-16T23:39:54.798Z,6.95
2022-11-16T23:42:41.596Z,7.13
2022-11-16T23:45:10.256Z,8.05
2022-11-16T23:47:38.200Z,7.28
2022-11-16T23:50:06.797Z,6.43
2022-11-16T23:52:34.772Z,8.80
2022-11-16T23:55:02.694Z,6.40
2022-11-16T23:57:32.131Z,7.50
